QTR6AA OTHH-VVTS
Flight info
| Callsign | QTR6AA |
|---|---|
| Flight time | N/A |
| Altitude | 35000 |
| Route | KUPRO N300 NOLSU P307 VAXIM L301 RASKI L639 AAE N895 ATMUV/N0494F370 N895 NNP L524 BKK N506 ELMOP R468 SAPEN SAPEN5N |
| Aircraft | B77W/H-SDE1E2E3FGHIJ2J3J4J5M1RWXY/LB1D1 |
Departure
| Time | 2026-05-04 06:16 |
|---|---|
| Airport | Hamad International Airport (OTHH) |
Arrival
| Time | N/A |
|---|---|
| Airport | Tan Son Nhat International Airport (VVTS) |
| Time | Latitude | Longitude | Altitude | Speed | Heading |
|---|---|---|---|---|---|
| 2026-05-04 06:06 | 25.26409 | 51.61344 | 35 ft | 0 kts | 248° |
| 2026-05-04 06:09 | 25.26412 | 51.61354 | 34 ft | 3 kts | 248° |
| 2026-05-04 06:11 | 25.26487 | 51.61411 | 33 ft | 0 kts | 158° |
| 2026-05-04 06:14 | 25.26300 | 51.62033 | 35 ft | 23 kts | 158° |
| 2026-05-04 06:14 | 25.26153 | 51.62101 | 35 ft | 23 kts | 158° |
| 2026-05-04 06:15 | 25.26005 | 51.62169 | 35 ft | 23 kts | 149° |
| 2026-05-04 06:15 | 25.25989 | 51.62288 | 34 ft | 18 kts | 69° |
| 2026-05-04 06:15 | 25.26078 | 51.62430 | 31 ft | 21 kts | 7° |
| 2026-05-04 06:15 | 25.26322 | 51.62333 | 32 ft | 78 kts | 339° |
| 2026-05-04 06:16 | 25.27151 | 51.61971 | 31 ft | 175 kts | 339° |
| 2026-05-04 06:16 | 25.28467 | 51.61381 | 361 ft | 219 kts | 336° |
| 2026-05-04 06:16 | 25.29826 | 51.60770 | 1608 ft | 208 kts | 338° |
| 2026-05-04 06:16 | 25.31197 | 51.60172 | 2760 ft | 218 kts | 337° |
| 2026-05-04 06:17 | 25.32656 | 51.59528 | 3692 ft | 235 kts | 338° |
| 2026-05-04 06:17 | 25.34314 | 51.59214 | 4586 ft | 253 kts | 2° |
| 2026-05-04 06:17 | 25.36050 | 51.59776 | 5598 ft | 270 kts | 26° |
| 2026-05-04 06:17 | 25.37521 | 51.61144 | 6613 ft | 286 kts | 50° |
| 2026-05-04 06:18 | 25.38356 | 51.63186 | 7588 ft | 303 kts | 76° |
| 2026-05-04 06:18 | 25.38385 | 51.65551 | 8629 ft | 313 kts | 95° |
| 2026-05-04 06:18 | 25.37969 | 51.67945 | 9681 ft | 321 kts | 101° |
| 2026-05-04 06:20 | 25.33795 | 51.87712 | 13368 ft | 414 kts | 99° |
| 2026-05-04 06:20 | 25.33264 | 51.90858 | 14090 ft | 418 kts | 101° |
| 2026-05-04 06:21 | 25.30427 | 52.03572 | 16870 ft | 433 kts | 104° |
| 2026-05-04 06:21 | 25.29661 | 52.06802 | 17558 ft | 437 kts | 104° |
| 2026-05-04 06:22 | 25.28865 | 52.10065 | 18183 ft | 441 kts | 107° |
| 2026-05-04 06:22 | 25.27881 | 52.13297 | 18730 ft | 446 kts | 109° |
| 2026-05-04 06:25 | 25.13923 | 52.57347 | 24826 ft | 492 kts | 111° |
| 2026-05-04 06:25 | 25.12625 | 52.60833 | 24930 ft | 492 kts | 117° |
| 2026-05-04 06:26 | 25.11056 | 52.64202 | 25345 ft | 494 kts | 119° |
| 2026-05-04 06:26 | 25.09473 | 52.67580 | 25762 ft | 497 kts | 119° |
| 2026-05-04 06:26 | 25.07906 | 52.70996 | 26144 ft | 501 kts | 118° |
| 2026-05-04 06:26 | 25.06387 | 52.74469 | 26492 ft | 506 kts | 115° |
| 2026-05-04 06:27 | 25.02498 | 52.89688 | 27838 ft | 523 kts | 104° |
| 2026-05-04 06:28 | 25.01650 | 52.93550 | 28152 ft | 527 kts | 105° |
| 2026-05-04 06:28 | 25.00765 | 52.97483 | 28442 ft | 530 kts | 105° |
| 2026-05-04 06:28 | 24.99862 | 53.01446 | 28732 ft | 534 kts | 105° |
| 2026-05-04 06:28 | 24.98951 | 53.05433 | 28995 ft | 538 kts | 105° |
| 2026-05-04 06:29 | 24.98031 | 53.09446 | 29252 ft | 541 kts | 105° |
| 2026-05-04 06:29 | 24.97099 | 53.13476 | 29508 ft | 544 kts | 105° |
| 2026-05-04 06:29 | 24.96159 | 53.17521 | 29827 ft | 545 kts | 105° |
| 2026-05-04 06:29 | 24.95216 | 53.21575 | 30165 ft | 545 kts | 105° |
| 2026-05-04 06:30 | 24.94276 | 53.25615 | 30535 ft | 544 kts | 105° |
| 2026-05-04 06:30 | 24.93338 | 53.29648 | 30893 ft | 543 kts | 105° |
| 2026-05-04 06:30 | 24.92415 | 53.33615 | 31314 ft | 540 kts | 105° |
| 2026-05-04 06:30 | 24.91482 | 53.37619 | 31718 ft | 539 kts | 105° |
| 2026-05-04 06:31 | 24.90549 | 53.41618 | 32062 ft | 539 kts | 105° |
| 2026-05-04 06:31 | 24.89556 | 53.45609 | 32391 ft | 538 kts | 107° |
| 2026-05-04 06:31 | 24.88483 | 53.49559 | 32729 ft | 538 kts | 108° |
| 2026-05-04 06:31 | 24.87377 | 53.53487 | 33079 ft | 537 kts | 109° |
| 2026-05-04 06:32 | 24.86266 | 53.57418 | 33425 ft | 536 kts | 109° |
| 2026-05-04 06:33 | 24.78721 | 53.84848 | 34832 ft | 535 kts | 108° |
| 2026-05-04 06:34 | 24.76575 | 53.92646 | 34825 ft | 529 kts | 108° |
| 2026-05-04 06:34 | 24.75764 | 53.96592 | 34825 ft | 529 kts | 97° |
| 2026-05-04 06:34 | 24.75592 | 54.00627 | 34841 ft | 528 kts | 87° |
| 2026-05-04 06:36 | 24.83671 | 54.31774 | 34837 ft | 537 kts | 71° |
| 2026-05-04 06:37 | 24.85882 | 54.39637 | 34831 ft | 537 kts | 71° |
| 2026-05-04 06:37 | 24.88111 | 54.47493 | 34828 ft | 537 kts | 71° |
| 2026-05-04 06:38 | 24.90338 | 54.55333 | 34831 ft | 535 kts | 71° |
| 2026-05-04 06:40 | 24.97281 | 54.87082 | 34841 ft | 534 kts | 76° |
| 2026-05-04 06:40 | 24.98791 | 54.95106 | 34851 ft | 535 kts | 77° |
| 2026-05-04 06:41 | 25.00294 | 55.03153 | 34854 ft | 536 kts | 76° |
| 2026-05-04 06:41 | 25.01796 | 55.11208 | 34856 ft | 537 kts | 76° |
| 2026-05-04 06:42 | 25.03296 | 55.19274 | 34853 ft | 537 kts | 76° |
| 2026-05-04 06:44 | 25.09372 | 55.51507 | 34815 ft | 537 kts | 76° |
| 2026-05-04 06:44 | 25.10877 | 55.59594 | 34821 ft | 538 kts | 76° |
| 2026-05-04 06:45 | 25.12347 | 55.67689 | 34824 ft | 538 kts | 76° |
| 2026-05-04 06:45 | 25.13816 | 55.75784 | 34822 ft | 538 kts | 76° |
| 2026-05-04 06:46 | 25.15390 | 55.83853 | 34825 ft | 537 kts | 75° |
| 2026-05-04 06:46 | 25.17057 | 55.91824 | 34821 ft | 537 kts | 75° |
| 2026-05-04 06:48 | 25.19485 | 56.18855 | 34798 ft | 539 kts | 107° |
| 2026-05-04 06:48 | 25.18280 | 56.22772 | 34808 ft | 537 kts | 111° |
| 2026-05-04 06:50 | 25.08106 | 56.53906 | 34797 ft | 539 kts | 110° |
| 2026-05-04 06:51 | 25.05380 | 56.61572 | 34792 ft | 539 kts | 113° |
| 2026-05-04 06:51 | 25.02475 | 56.69186 | 34789 ft | 538 kts | 114° |
| 2026-05-04 06:52 | 24.99593 | 56.76802 | 34785 ft | 538 kts | 113° |
| 2026-05-04 06:52 | 24.96748 | 56.84437 | 34794 ft | 538 kts | 113° |
| 2026-05-04 06:53 | 24.93915 | 56.92064 | 34787 ft | 538 kts | 113° |
| 2026-05-04 06:53 | 24.91073 | 56.99699 | 34795 ft | 538 kts | 113° |
| 2026-05-04 06:54 | 24.88242 | 57.07278 | 34783 ft | 538 kts | 113° |
| 2026-05-04 06:54 | 24.85394 | 57.14884 | 34795 ft | 537 kts | 113° |
| 2026-05-04 06:55 | 24.82540 | 57.22496 | 34794 ft | 538 kts | 113° |
| 2026-05-04 06:55 | 24.79678 | 57.30115 | 34788 ft | 538 kts | 113° |
| 2026-05-04 06:57 | 24.68212 | 57.60504 | 34788 ft | 538 kts | 113° |
| 2026-05-04 06:58 | 24.65337 | 57.68093 | 34788 ft | 537 kts | 113° |
| 2026-05-04 06:58 | 24.62455 | 57.75684 | 34789 ft | 537 kts | 113° |
| 2026-05-04 06:59 | 24.59573 | 57.83261 | 34787 ft | 537 kts | 113° |
| 2026-05-04 06:59 | 24.56684 | 57.90843 | 34786 ft | 537 kts | 113° |
| 2026-05-04 07:01 | 24.45094 | 58.21146 | 34795 ft | 538 kts | 113° |
| 2026-05-04 07:02 | 24.42202 | 58.28675 | 34788 ft | 539 kts | 113° |
| 2026-05-04 07:02 | 24.39284 | 58.36257 | 34783 ft | 539 kts | 113° |
| 2026-05-04 07:03 | 24.36365 | 58.43830 | 34789 ft | 538 kts | 113° |
| 2026-05-04 07:03 | 24.33456 | 58.51367 | 34790 ft | 538 kts | 113° |
| 2026-05-04 07:04 | 24.30525 | 58.58937 | 34789 ft | 539 kts | 113° |
| 2026-05-04 07:04 | 24.27591 | 58.66495 | 34789 ft | 539 kts | 113° |
| 2026-05-04 07:05 | 24.24647 | 58.74069 | 34789 ft | 539 kts | 113° |
| 2026-05-04 07:05 | 24.21723 | 58.81582 | 34785 ft | 538 kts | 113° |
| 2026-05-04 07:06 | 24.17313 | 58.92889 | 34789 ft | 537 kts | 113° |
| 2026-05-04 07:07 | 24.14370 | 59.00418 | 34784 ft | 537 kts | 113° |
| 2026-05-04 07:09 | 24.02592 | 59.30425 | 34784 ft | 537 kts | 114° |
| 2026-05-04 07:09 | 23.99686 | 59.37948 | 34782 ft | 537 kts | 112° |
| 2026-05-04 07:10 | 23.96911 | 59.45527 | 34786 ft | 537 kts | 111° |
| 2026-05-04 07:12 | 23.85728 | 59.75762 | 34781 ft | 537 kts | 112° |
| 2026-05-04 07:12 | 23.82912 | 59.83317 | 34779 ft | 537 kts | 112° |
| 2026-05-04 07:13 | 23.80086 | 59.90869 | 34779 ft | 536 kts | 112° |
| 2026-05-04 07:13 | 23.77253 | 59.98425 | 34778 ft | 536 kts | 112° |
| 2026-05-04 07:14 | 23.70185 | 60.17237 | 34774 ft | 536 kts | 112° |
| 2026-05-04 07:15 | 23.67340 | 60.24786 | 34779 ft | 537 kts | 112° |
| 2026-05-04 07:15 | 23.64515 | 60.32273 | 34775 ft | 537 kts | 112° |
| 2026-05-04 07:16 | 23.61664 | 60.39812 | 34776 ft | 537 kts | 112° |
| 2026-05-04 07:16 | 23.58810 | 60.47345 | 34772 ft | 537 kts | 112° |
| 2026-05-04 07:17 | 23.55956 | 60.54867 | 34773 ft | 537 kts | 112° |
| 2026-05-04 07:17 | 23.53113 | 60.62349 | 34766 ft | 537 kts | 112° |
| 2026-05-04 07:18 | 23.50251 | 60.69868 | 34777 ft | 537 kts | 112° |
| 2026-05-04 07:18 | 23.47385 | 60.77383 | 34778 ft | 536 kts | 112° |
| 2026-05-04 07:19 | 23.44516 | 60.84894 | 34775 ft | 537 kts | 112° |
| 2026-05-04 07:19 | 23.41665 | 60.92346 | 34776 ft | 537 kts | 112° |
| 2026-05-04 07:20 | 23.38790 | 60.99848 | 34776 ft | 537 kts | 112° |
| 2026-05-04 07:20 | 23.35905 | 61.07366 | 34781 ft | 537 kts | 112° |
| 2026-05-04 07:22 | 23.30179 | 61.34746 | 34788 ft | 533 kts | 93° |
| 2026-05-04 07:22 | 23.29853 | 61.38766 | 34783 ft | 534 kts | 93° |
| 2026-05-04 07:23 | 23.29163 | 61.46862 | 34780 ft | 535 kts | 94° |
| 2026-05-04 07:23 | 23.28447 | 61.54863 | 34781 ft | 535 kts | 94° |
| 2026-05-04 07:24 | 23.27713 | 61.62926 | 34778 ft | 535 kts | 94° |
| 2026-05-04 07:24 | 23.26976 | 61.70988 | 34780 ft | 536 kts | 94° |
| 2026-05-04 07:26 | 23.24005 | 62.03194 | 34778 ft | 535 kts | 94° |
| 2026-05-04 07:27 | 23.23251 | 62.11256 | 34781 ft | 535 kts | 94° |
| 2026-05-04 07:27 | 23.22494 | 62.19299 | 34780 ft | 534 kts | 94° |
| 2026-05-04 07:28 | 23.21734 | 62.27333 | 34784 ft | 534 kts | 94° |
| 2026-05-04 07:28 | 23.20975 | 62.35318 | 34783 ft | 534 kts | 94° |
| 2026-05-04 07:29 | 23.20206 | 62.43359 | 34785 ft | 534 kts | 94° |
| 2026-05-04 07:29 | 23.19432 | 62.51406 | 34783 ft | 534 kts | 94° |
| 2026-05-04 07:30 | 23.18654 | 62.59457 | 34788 ft | 535 kts | 94° |
| 2026-05-04 07:30 | 23.17878 | 62.67445 | 34790 ft | 535 kts | 94° |
| 2026-05-04 07:31 | 23.17091 | 62.75496 | 34791 ft | 535 kts | 94° |
| 2026-05-04 07:33 | 23.13901 | 63.07717 | 34788 ft | 536 kts | 94° |
| 2026-05-04 07:33 | 23.13094 | 63.15766 | 34794 ft | 535 kts | 94° |
| 2026-05-04 07:34 | 23.12283 | 63.23805 | 34786 ft | 535 kts | 94° |
| 2026-05-04 07:34 | 23.11469 | 63.31836 | 34787 ft | 535 kts | 94° |
| 2026-05-04 07:35 | 23.10656 | 63.39824 | 34786 ft | 535 kts | 94° |
| 2026-05-04 07:35 | 23.09833 | 63.47857 | 34786 ft | 535 kts | 94° |
| 2026-05-04 07:36 | 23.09007 | 63.55893 | 34789 ft | 535 kts | 94° |
| 2026-05-04 07:38 | 23.05796 | 63.86737 | 34787 ft | 537 kts | 94° |
| 2026-05-04 07:38 | 23.04971 | 63.94799 | 34790 ft | 537 kts | 94° |
| 2026-05-04 07:39 | 23.04168 | 64.02804 | 34786 ft | 537 kts | 94° |
| 2026-05-04 07:39 | 23.03352 | 64.10872 | 34790 ft | 538 kts | 94° |
| 2026-05-04 07:40 | 23.02528 | 64.18946 | 34785 ft | 538 kts | 94° |
| 2026-05-04 07:40 | 23.01697 | 64.27023 | 34789 ft | 538 kts | 94° |
| 2026-05-04 07:41 | 23.00861 | 64.35116 | 34786 ft | 538 kts | 94° |
| 2026-05-04 07:41 | 23.00023 | 64.43189 | 34790 ft | 538 kts | 94° |
| 2026-05-04 07:42 | 22.99186 | 64.51219 | 34786 ft | 538 kts | 94° |
| 2026-05-04 07:42 | 22.98341 | 64.59284 | 34782 ft | 538 kts | 94° |
| 2026-05-04 07:43 | 22.97490 | 64.67362 | 34779 ft | 538 kts | 94° |
| 2026-05-04 07:43 | 22.96637 | 64.75430 | 34785 ft | 538 kts | 94° |
| 2026-05-04 07:44 | 22.95822 | 64.83503 | 34776 ft | 537 kts | 91° |
| 2026-05-04 07:44 | 22.95748 | 64.91538 | 34782 ft | 534 kts | 86° |
| 2026-05-04 07:45 | 22.95860 | 64.99616 | 34782 ft | 534 kts | 86° |
| 2026-05-04 07:45 | 22.95944 | 65.07639 | 34783 ft | 535 kts | 86° |
| 2026-05-04 07:46 | 22.95990 | 65.15708 | 34783 ft | 535 kts | 86° |
| 2026-05-04 07:46 | 22.96021 | 65.23781 | 34768 ft | 535 kts | 86° |
| 2026-05-04 07:47 | 22.96049 | 65.31850 | 34779 ft | 534 kts | 86° |
| 2026-05-04 07:49 | 22.96133 | 65.64062 | 34783 ft | 534 kts | 86° |
| 2026-05-04 07:49 | 22.96144 | 65.72126 | 34771 ft | 535 kts | 87° |
| 2026-05-04 07:50 | 22.96151 | 65.80200 | 34772 ft | 535 kts | 87° |
| 2026-05-04 07:50 | 22.96154 | 65.88274 | 34770 ft | 535 kts | 87° |
| 2026-05-04 07:51 | 22.96153 | 65.96343 | 34770 ft | 535 kts | 87° |
| 2026-05-04 07:51 | 22.96148 | 66.04427 | 34767 ft | 535 kts | 87° |
| 2026-05-04 07:52 | 22.96138 | 66.12464 | 34768 ft | 536 kts | 87° |
| 2026-05-04 07:52 | 22.96125 | 66.20550 | 34771 ft | 536 kts | 87° |
| 2026-05-04 07:54 | 22.96030 | 66.52896 | 34764 ft | 536 kts | 87° |
| 2026-05-04 07:55 | 22.95996 | 66.60990 | 34759 ft | 536 kts | 87° |
| 2026-05-04 07:55 | 22.95958 | 66.69093 | 34753 ft | 537 kts | 87° |
| 2026-05-04 07:56 | 22.95915 | 66.77202 | 34764 ft | 536 kts | 87° |
| 2026-05-04 07:56 | 22.95869 | 66.85301 | 34762 ft | 536 kts | 87° |
| 2026-05-04 07:57 | 22.95820 | 66.93336 | 34759 ft | 536 kts | 87° |
| 2026-05-04 07:57 | 22.95788 | 67.01440 | 34755 ft | 536 kts | 86° |
| 2026-05-04 07:58 | 22.95815 | 67.09530 | 34749 ft | 535 kts | 86° |
| 2026-05-04 07:58 | 22.95843 | 67.17615 | 34755 ft | 535 kts | 86° |
| 2026-05-04 07:59 | 22.95857 | 67.25685 | 34750 ft | 535 kts | 86° |
| 2026-05-04 07:59 | 22.95863 | 67.33703 | 34747 ft | 534 kts | 86° |
| 2026-05-04 08:00 | 22.95864 | 67.41784 | 34749 ft | 534 kts | 86° |
| 2026-05-04 08:02 | 22.95831 | 67.74051 | 34746 ft | 535 kts | 86° |
| 2026-05-04 08:02 | 22.95814 | 67.82127 | 34750 ft | 535 kts | 86° |
| 2026-05-04 08:03 | 22.95796 | 67.90158 | 34746 ft | 536 kts | 86° |
| 2026-05-04 08:03 | 22.95805 | 67.98241 | 34744 ft | 536 kts | 86° |
| 2026-05-04 08:04 | 22.95817 | 68.06357 | 34744 ft | 536 kts | 86° |
| 2026-05-04 08:04 | 22.95820 | 68.14436 | 34745 ft | 536 kts | 86° |
| 2026-05-04 08:05 | 22.95816 | 68.22492 | 34762 ft | 536 kts | 86° |
| 2026-05-04 08:05 | 22.95810 | 68.30584 | 34755 ft | 537 kts | 86° |
| 2026-05-04 08:06 | 22.95774 | 68.38695 | 34749 ft | 538 kts | 88° |
| 2026-05-04 08:06 | 22.95361 | 68.46781 | 34757 ft | 539 kts | 90° |
| 2026-05-04 08:08 | 22.93379 | 68.79264 | 34754 ft | 540 kts | 90° |
| 2026-05-04 08:11 | 22.91160 | 69.15798 | 34752 ft | 538 kts | 90° |
| 2026-05-04 08:11 | 22.90403 | 69.27961 | 34758 ft | 538 kts | 90° |
| 2026-05-04 08:12 | 22.89894 | 69.36054 | 34756 ft | 538 kts | 90° |
| 2026-05-04 08:12 | 22.89383 | 69.44110 | 34758 ft | 538 kts | 90° |